sensor_id;sensor_type;location;lat;lon;timestamp;pressure;altitude;pressure_sealevel;temperature;humidity
64876;BME280;51369;49.862;9.908;2023-04-29T00:01:32;97913.97;;;11.90;82.29
64876;BME280;51369;49.862;9.908;2023-04-29T00:03:58;97917.81;;;11.86;82.26
64876;BME280;51369;49.862;9.908;2023-04-29T00:06:23;97910.72;;;11.83;82.08
64876;BME280;51369;49.862;9.908;2023-04-29T00:08:48;97905.50;;;11.80;81.58
64876;BME280;51369;49.862;9.908;2023-04-29T00:11:16;97905.66;;;11.77;82.26
64876;BME280;51369;49.862;9.908;2023-04-29T00:13:41;97914.78;;;11.74;81.67
64876;BME280;51369;49.862;9.908;2023-04-29T00:16:07;97912.25;;;11.71;82.28
64876;BME280;51369;49.862;9.908;2023-04-29T00:18:34;97915.13;;;11.68;82.18
64876;BME280;51369;49.862;9.908;2023-04-29T00:21:00;97908.91;;;11.66;82.94
64876;BME280;51369;49.862;9.908;2023-04-29T00:23:26;97912.75;;;11.62;82.56
64876;BME280;51369;49.862;9.908;2023-04-29T00:25:51;97908.28;;;11.61;82.29
64876;BME280;51369;49.862;9.908;2023-04-29T00:28:18;97915.44;;;11.62;81.97
64876;BME280;51369;49.862;9.908;2023-04-29T00:30:44;97914.75;;;11.59;82.63
64876;BME280;51369;49.862;9.908;2023-04-29T00:33:09;97913.94;;;11.57;81.93
64876;BME280;51369;49.862;9.908;2023-04-29T00:35:34;97907.84;;;11.53;82.29
64876;BME280;51369;49.862;9.908;2023-04-29T00:38:00;97912.38;;;11.53;82.45
64876;BME280;51369;49.862;9.908;2023-04-29T00:40:27;97908.00;;;11.50;82.37
64876;BME280;51369;49.862;9.908;2023-04-29T00:42:52;97909.91;;;11.48;82.31
64876;BME280;51369;49.862;9.908;2023-04-29T00:45:18;97913.66;;;11.46;82.33
64876;BME280;51369;49.862;9.908;2023-04-29T00:47:43;97906.41;;;11.46;82.51
64876;BME280;51369;49.862;9.908;2023-04-29T00:50:09;97909.91;;;11.48;83.10
64876;BME280;51369;49.862;9.908;2023-04-29T00:52:36;97923.34;;;11.50;82.33
64876;BME280;51369;49.862;9.908;2023-04-29T00:55:03;97915.31;;;11.48;82.93
64876;BME280;51369;49.862;9.908;2023-04-29T00:57:29;97922.47;;;11.49;82.77
64876;BME280;51369;49.862;9.908;2023-04-29T00:59:56;97912.53;;;11.50;82.81
64876;BME280;51369;49.862;9.908;2023-04-29T01:02:23;97916.03;;;11.52;83.77
64876;BME280;51369;49.862;9.908;2023-04-29T01:04:49;97907.91;;;11.52;83.68
64876;BME280;51369;49.862;9.908;2023-04-29T01:10:13;97902.75;;;11.47;83.42
64876;BME280;51369;49.862;9.908;2023-04-29T01:12:51;97902.69;;;11.49;83.26
64876;BME280;51369;49.862;9.908;2023-04-29T01:15:27;97903.47;;;11.51;84.26
64876;BME280;51369;49.862;9.908;2023-04-29T01:18:03;97900.75;;;11.51;83.37
64876;BME280;51369;49.862;9.908;2023-04-29T01:20:31;97901.63;;;11.51;83.50
64876;BME280;51369;49.862;9.908;2023-04-29T01:22:58;97902.44;;;11.53;83.74
64876;BME280;51369;49.862;9.908;2023-04-29T01:25:24;97906.00;;;11.54;84.45
64876;BME280;51369;49.862;9.908;2023-04-29T01:38:36;97917.97;;;11.32;82.84
64876;BME280;51369;49.862;9.908;2023-04-29T01:41:13;97919.31;;;11.24;81.87
64876;BME280;51369;49.862;9.908;2023-04-29T01:43:41;97916.00;;;11.19;82.49
64876;BME280;51369;49.862;9.908;2023-04-29T01:46:20;97928.78;;;11.15;82.21
64876;BME280;51369;49.862;9.908;2023-04-29T01:48:46;97932.59;;;11.11;82.24
64876;BME280;51369;49.862;9.908;2023-04-29T01:51:12;97925.53;;;11.08;82.07
64876;BME280;51369;49.862;9.908;2023-04-29T01:53:38;97926.47;;;11.07;81.90
64876;BME280;51369;49.862;9.908;2023-04-29T01:56:07;97932.75;;;11.08;82.77
64876;BME280;51369;49.862;9.908;2023-04-29T01:58:59;97924.56;;;11.09;83.25
64876;BME280;51369;49.862;9.908;2023-04-29T02:01:51;97927.91;;;11.15;84.33
64876;BME280;51369;49.862;9.908;2023-04-29T02:04:18;97916.16;;;11.16;83.90
64876;BME280;51369;49.862;9.908;2023-04-29T02:06:43;97918.94;;;11.14;83.62
64876;BME280;51369;49.862;9.908;2023-04-29T02:09:09;97912.66;;;11.14;84.02
64876;BME280;51369;49.862;9.908;2023-04-29T02:11:34;97918.84;;;11.16;83.85
64876;BME280;51369;49.862;9.908;2023-04-29T02:14:00;97925.22;;;11.15;83.56
64876;BME280;51369;49.862;9.908;2023-04-29T02:16:26;97926.16;;;11.14;82.65
64876;BME280;51369;49.862;9.908;2023-04-29T02:18:55;97928.94;;;11.12;83.22
64876;BME280;51369;49.862;9.908;2023-04-29T02:21:21;97932.59;;;11.11;82.89
64876;BME280;51369;49.862;9.908;2023-04-29T02:23:46;97930.84;;;11.10;82.51
64876;BME280;51369;49.862;9.908;2023-04-29T02:26:12;97929.09;;;11.09;82.94
64876;BME280;51369;49.862;9.908;2023-04-29T02:28:39;97933.47;;;11.12;83.42
64876;BME280;51369;49.862;9.908;2023-04-29T02:31:04;97931.41;;;11.17;84.12
64876;BME280;51369;49.862;9.908;2023-04-29T02:33:31;97931.09;;;11.23;84.62
64876;BME280;51369;49.862;9.908;2023-04-29T02:35:57;97923.59;;;11.28;85.03
64876;BME280;51369;49.862;9.908;2023-04-29T02:38:23;97926.88;;;11.34;85.05
64876;BME280;51369;49.862;9.908;2023-04-29T02:40:49;97927.50;;;11.39;85.08
64876;BME280;51369;49.862;9.908;2023-04-29T02:43:14;97929.94;;;11.44;85.52
64876;BME280;51369;49.862;9.908;2023-04-29T02:45:39;97934.41;;;11.45;85.18
64876;BME280;51369;49.862;9.908;2023-04-29T02:48:05;97930.91;;;11.43;85.14
64876;BME280;51369;49.862;9.908;2023-04-29T02:50:31;97934.72;;;11.39;84.40
64876;BME280;51369;49.862;9.908;2023-04-29T02:52:57;97934.88;;;11.36;83.90
64876;BME280;51369;49.862;9.908;2023-04-29T02:55:23;97931.47;;;11.32;83.76
64876;BME280;51369;49.862;9.908;2023-04-29T02:57:48;97927.91;;;11.32;84.13
64876;BME280;51369;49.862;9.908;2023-04-29T03:00:14;97926.94;;;11.33;83.12
64876;BME280;51369;49.862;9.908;2023-04-29T03:02:39;97927.91;;;11.32;83.19
64876;BME280;51369;49.862;9.908;2023-04-29T03:05:06;97932.34;;;11.33;83.79
64876;BME280;51369;49.862;9.908;2023-04-29T03:07:31;97937.75;;;11.33;83.91
64876;BME280;51369;49.862;9.908;2023-04-29T03:09:57;97939.50;;;11.34;84.02
64876;BME280;51369;49.862;9.908;2023-04-29T03:12:23;97939.41;;;11.35;83.24
64876;BME280;51369;49.862;9.908;2023-04-29T03:14:48;97936.78;;;11.34;82.92
64876;BME280;51369;49.862;9.908;2023-04-29T03:17:14;97939.50;;;11.34;82.46
64876;BME280;51369;49.862;9.908;2023-04-29T03:19:41;97945.69;;;11.36;83.43
64876;BME280;51369;49.862;9.908;2023-04-29T03:22:06;97944.41;;;11.43;84.13
64876;BME280;51369;49.862;9.908;2023-04-29T03:24:35;97933.38;;;11.48;84.70
64876;BME280;51369;49.862;9.908;2023-04-29T03:27:00;97939.47;;;11.51;84.06
64876;BME280;51369;49.862;9.908;2023-04-29T03:29:26;97932.16;;;11.53;83.90
64876;BME280;51369;49.862;9.908;2023-04-29T03:31:54;97941.06;;;11.55;84.29
64876;BME280;51369;49.862;9.908;2023-04-29T03:34:21;97941.84;;;11.57;83.33
64876;BME280;51369;49.862;9.908;2023-04-29T03:36:55;97937.25;;;11.59;83.72
64876;BME280;51369;49.862;9.908;2023-04-29T03:39:21;97938.66;;;11.66;84.54
64876;BME280;51369;49.862;9.908;2023-04-29T03:41:47;97947.22;;;11.74;84.49
64876;BME280;51369;49.862;9.908;2023-04-29T03:44:13;97947.72;;;11.83;84.76
64876;BME280;51369;49.862;9.908;2023-04-29T03:46:39;97941.97;;;11.89;84.91
64876;BME280;51369;49.862;9.908;2023-04-29T03:49:04;97949.75;;;11.95;85.02
64876;BME280;51369;49.862;9.908;2023-04-29T03:51:30;97953.16;;;11.98;84.73
64876;BME280;51369;49.862;9.908;2023-04-29T03:54:04;97948.38;;;12.03;84.39
64876;BME280;51369;49.862;9.908;2023-04-29T03:56:30;97953.53;;;12.08;84.52
64876;BME280;51369;49.862;9.908;2023-04-29T03:58:56;97948.81;;;12.12;84.80
64876;BME280;51369;49.862;9.908;2023-04-29T04:01:24;97952.13;;;12.17;84.59
64876;BME280;51369;49.862;9.908;2023-04-29T04:03:50;97948.28;;;12.21;84.68
64876;BME280;51369;49.862;9.908;2023-04-29T04:06:16;97954.41;;;12.24;84.74
64876;BME280;51369;49.862;9.908;2023-04-29T04:08:42;97956.75;;;12.30;83.94
64876;BME280;51369;49.862;9.908;2023-04-29T04:11:18;97963.75;;;12.34;83.74
64876;BME280;51369;49.862;9.908;2023-04-29T04:13:48;97959.81;;;12.40;83.88
64876;BME280;51369;49.862;9.908;2023-04-29T04:16:14;97964.00;;;12.46;83.57
64876;BME280;51369;49.862;9.908;2023-04-29T04:18:39;97962.78;;;12.51;83.40
64876;BME280;51369;49.862;9.908;2023-04-29T04:21:09;97969.69;;;12.57;83.71
64876;BME280;51369;49.862;9.908;2023-04-29T04:23:37;97970.31;;;12.62;83.79
64876;BME280;51369;49.862;9.908;2023-04-29T04:26:06;97976.41;;;12.65;83.00
64876;BME280;51369;49.862;9.908;2023-04-29T04:28:51;97984.28;;;12.70;82.40
64876;BME280;51369;49.862;9.908;2023-04-29T04:31:25;97980.44;;;12.74;82.58
64876;BME280;51369;49.862;9.908;2023-04-29T04:33:50;97983.75;;;12.79;81.89
64876;BME280;51369;49.862;9.908;2023-04-29T04:36:16;97988.03;;;12.83;82.19
64876;BME280;51369;49.862;9.908;2023-04-29T04:38:42;97981.47;;;12.87;82.26
64876;BME280;51369;49.862;9.908;2023-04-29T04:41:10;97983.91;;;12.92;82.49
64876;BME280;51369;49.862;9.908;2023-04-29T04:43:37;97988.28;;;12.94;81.59
64876;BME280;51369;49.862;9.908;2023-04-29T04:46:09;97987.13;;;12.98;82.05
64876;BME280;51369;49.862;9.908;2023-04-29T04:48:37;97995.09;;;13.01;81.30
64876;BME280;51369;49.862;9.908;2023-04-29T04:51:09;97994.91;;;13.04;81.31
64876;BME280;51369;49.862;9.908;2023-04-29T04:53:35;97999.19;;;13.09;81.57
64876;BME280;51369;49.862;9.908;2023-04-29T04:56:06;98001.72;;;13.12;80.96
64876;BME280;51369;49.862;9.908;2023-04-29T04:58:32;98000.66;;;13.14;80.55
64876;BME280;51369;49.862;9.908;2023-04-29T05:00:58;98003.28;;;13.16;81.16
64876;BME280;51369;49.862;9.908;2023-04-29T05:03:24;98011.25;;;13.19;80.72
64876;BME280;51369;49.862;9.908;2023-04-29T05:05:56;98013.00;;;13.20;79.88
64876;BME280;51369;49.862;9.908;2023-04-29T05:08:23;98010.13;;;13.23;79.95
64876;BME280;51369;49.862;9.908;2023-04-29T05:10:51;98013.63;;;13.25;80.42
64876;BME280;51369;49.862;9.908;2023-04-29T05:13:17;98018.94;;;13.26;80.04
64876;BME280;51369;49.862;9.908;2023-04-29T05:15:43;98019.63;;;13.30;79.95
64876;BME280;51369;49.862;9.908;2023-04-29T05:18:10;98019.53;;;13.31;80.26
64876;BME280;51369;49.862;9.908;2023-04-29T05:20:36;98028.38;;;13.35;79.89
64876;BME280;51369;49.862;9.908;2023-04-29T05:23:02;98020.94;;;13.39;80.55
64876;BME280;51369;49.862;9.908;2023-04-29T05:25:32;98017.25;;;13.40;79.84
64876;BME280;51369;49.862;9.908;2023-04-29T05:27:57;98028.78;;;13.43;79.58
64876;BME280;51369;49.862;9.908;2023-04-29T05:30:25;98030.53;;;13.44;79.86
64876;BME280;51369;49.862;9.908;2023-04-29T05:32:51;98030.44;;;13.46;79.54
64876;BME280;51369;49.862;9.908;2023-04-29T05:35:18;98033.94;;;13.48;79.63
64876;BME280;51369;49.862;9.908;2023-04-29T05:37:44;98034.72;;;13.50;79.56
64876;BME280;51369;49.862;9.908;2023-04-29T05:40:35;98041.81;;;13.52;79.19
64876;BME280;51369;49.862;9.908;2023-04-29T05:43:19;98046.06;;;13.56;78.83
64876;BME280;51369;49.862;9.908;2023-04-29T05:45:48;98041.53;;;13.57;78.77
64876;BME280;51369;49.862;9.908;2023-04-29T05:48:13;98046.75;;;13.60;77.72
64876;BME280;51369;49.862;9.908;2023-04-29T05:50:39;98054.72;;;13.63;78.10
64876;BME280;51369;49.862;9.908;2023-04-29T05:53:04;98047.28;;;13.66;78.24
64876;BME280;51369;49.862;9.908;2023-04-29T05:55:30;98049.69;;;13.71;77.95
64876;BME280;51369;49.862;9.908;2023-04-29T05:57:56;98055.81;;;13.75;76.61
64876;BME280;51369;49.862;9.908;2023-04-29T06:00:21;98057.38;;;13.79;76.48
64876;BME280;51369;49.862;9.908;2023-04-29T06:02:47;98069.78;;;13.83;75.72
64876;BME280;51369;49.862;9.908;2023-04-29T06:05:14;98073.06;;;13.88;75.53
64876;BME280;51369;49.862;9.908;2023-04-29T06:08:03;98074.63;;;13.92;75.31
64876;BME280;51369;49.862;9.908;2023-04-29T06:10:31;98080.66;;;13.97;75.08
64876;BME280;51369;49.862;9.908;2023-04-29T06:12:58;98084.06;;;14.00;74.62
64876;BME280;51369;49.862;9.908;2023-04-29T06:15:24;98088.22;;;14.06;75.26
64876;BME280;51369;49.862;9.908;2023-04-29T06:17:49;98088.91;;;14.10;74.18
64876;BME280;51369;49.862;9.908;2023-04-29T06:20:15;98089.50;;;14.15;74.45
64876;BME280;51369;49.862;9.908;2023-04-29T06:22:40;98083.88;;;14.18;74.26
64876;BME280;51369;49.862;9.908;2023-04-29T06:25:06;98092.72;;;14.21;74.67
64876;BME280;51369;49.862;9.908;2023-04-29T06:27:50;98107.84;;;14.25;73.85
64876;BME280;51369;49.862;9.908;2023-04-29T06:30:18;98108.63;;;14.27;73.45
64876;BME280;51369;49.862;9.908;2023-04-29T06:32:44;98103.00;;;14.30;73.68
64876;BME280;51369;49.862;9.908;2023-04-29T06:35:09;98107.28;;;14.34;74.26
64876;BME280;51369;49.862;9.908;2023-04-29T06:37:53;98112.34;;;14.41;73.74
64876;BME280;51369;49.862;9.908;2023-04-29T06:40:35;98112.19;;;14.44;73.74
64876;BME280;51369;49.862;9.908;2023-04-29T06:43:24;98115.38;;;14.50;73.23
64876;BME280;51369;49.862;9.908;2023-04-29T06:46:10;98115.69;;;14.60;73.78
64876;BME280;51369;49.862;9.908;2023-04-29T06:49:06;98119.66;;;14.69;71.69
64876;BME280;51369;49.862;9.908;2023-04-29T06:51:31;98130.25;;;14.73;70.66
64876;BME280;51369;49.862;9.908;2023-04-29T06:53:57;98127.31;;;14.76;70.63
64876;BME280;51369;49.862;9.908;2023-04-29T06:56:23;98128.50;;;14.86;70.25
64876;BME280;51369;49.862;9.908;2023-04-29T06:58:48;98128.56;;;14.99;70.78
64876;BME280;51369;49.862;9.908;2023-04-29T07:01:13;98122.16;;;15.14;70.00
64876;BME280;51369;49.862;9.908;2023-04-29T07:03:39;98129.81;;;15.22;67.97
64876;BME280;51369;49.862;9.908;2023-04-29T07:06:04;98129.50;;;15.26;68.59
64876;BME280;51369;49.862;9.908;2023-04-29T07:08:30;98131.25;;;15.27;67.39
64876;BME280;51369;49.862;9.908;2023-04-29T07:10:56;98142.03;;;15.29;66.97
64876;BME280;51369;49.862;9.908;2023-04-29T07:13:23;98131.34;;;15.26;67.00
64876;BME280;51369;49.862;9.908;2023-04-29T07:15:49;98136.78;;;15.26;67.30
64876;BME280;51369;49.862;9.908;2023-04-29T07:18:15;98139.88;;;15.34;67.47
64876;BME280;51369;49.862;9.908;2023-04-29T07:20:40;98136.03;;;15.51;68.29
64876;BME280;51369;49.862;9.908;2023-04-29T07:23:06;98149.00;;;15.74;68.18
64876;BME280;51369;49.862;9.908;2023-04-29T07:25:32;98144.63;;;15.99;67.57
64876;BME280;51369;49.862;9.908;2023-04-29T07:27:58;98150.34;;;16.21;66.65
64876;BME280;51369;49.862;9.908;2023-04-29T07:30:24;98152.66;;;16.40;65.95
64876;BME280;51369;49.862;9.908;2023-04-29T07:32:50;98145.91;;;16.58;65.05
64876;BME280;51369;49.862;9.908;2023-04-29T07:35:17;98143.13;;;16.72;63.59
64876;BME280;51369;49.862;9.908;2023-04-29T07:37:42;98148.56;;;16.85;62.64
64876;BME280;51369;49.862;9.908;2023-04-29T07:40:09;98156.63;;;16.99;62.23
64876;BME280;51369;49.862;9.908;2023-04-29T07:42:36;98153.13;;;17.10;62.02
64876;BME280;51369;49.862;9.908;2023-04-29T07:45:03;98157.25;;;17.15;61.44
64876;BME280;51369;49.862;9.908;2023-04-29T07:47:28;98157.03;;;17.18;61.14
64876;BME280;51369;49.862;9.908;2023-04-29T07:49:54;98157.91;;;17.19;60.41
64876;BME280;51369;49.862;9.908;2023-04-29T07:52:19;98162.59;;;17.17;60.34
64876;BME280;51369;49.862;9.908;2023-04-29T07:54:47;98180.19;;;17.13;60.23
64876;BME280;51369;49.862;9.908;2023-04-29T07:57:13;98169.81;;;17.05;60.02
64876;BME280;51369;49.862;9.908;2023-04-29T07:59:38;98175.81;;;16.98;60.47
64876;BME280;51369;49.862;9.908;2023-04-29T08:02:03;98180.09;;;16.89;60.31
64876;BME280;51369;49.862;9.908;2023-04-29T08:04:29;98182.47;;;16.81;59.64
64876;BME280;51369;49.862;9.908;2023-04-29T08:07:05;98184.78;;;16.74;61.23
64876;BME280;51369;49.862;9.908;2023-04-29T08:09:31;98191.22;;;16.73;61.46
64876;BME280;51369;49.862;9.908;2023-04-29T08:11:56;98186.31;;;16.78;61.59
64876;BME280;51369;49.862;9.908;2023-04-29T08:14:22;98191.44;;;16.83;61.45
64876;BME280;51369;49.862;9.908;2023-04-29T08:16:47;98201.25;;;16.85;61.14
64876;BME280;51369;49.862;9.908;2023-04-29T08:19:12;98207.47;;;16.87;60.64
64876;BME280;51369;49.862;9.908;2023-04-29T08:21:38;98196.44;;;16.89;60.79
64876;BME280;51369;49.862;9.908;2023-04-29T08:24:03;98205.81;;;16.98;60.77
64876;BME280;51369;49.862;9.908;2023-04-29T08:26:30;98200.91;;;17.03;60.11
64876;BME280;51369;49.862;9.908;2023-04-29T08:28:55;98200.69;;;17.06;60.50
64876;BME280;51369;49.862;9.908;2023-04-29T08:31:21;98203.84;;;17.12;60.24
64876;BME280;51369;49.862;9.908;2023-04-29T08:33:47;98200.91;;;17.15;60.06
64876;BME280;51369;49.862;9.908;2023-04-29T08:36:13;98205.06;;;17.21;60.06
64876;BME280;51369;49.862;9.908;2023-04-29T08:38:38;98219.00;;;17.29;60.27
64876;BME280;51369;49.862;9.908;2023-04-29T08:41:06;98217.91;;;17.32;59.80
64876;BME280;51369;49.862;9.908;2023-04-29T08:43:34;98213.06;;;17.35;60.53
64876;BME280;51369;49.862;9.908;2023-04-29T08:46:01;98220.81;;;17.41;59.76
64876;BME280;51369;49.862;9.908;2023-04-29T08:48:28;98221.47;;;17.45;59.27
64876;BME280;51369;49.862;9.908;2023-04-29T08:50:53;98214.91;;;17.47;59.55
64876;BME280;51369;49.862;9.908;2023-04-29T08:53:19;98226.59;;;17.49;59.61
64876;BME280;51369;49.862;9.908;2023-04-29T08:55:47;98228.13;;;17.53;59.53
64876;BME280;51369;49.862;9.908;2023-04-29T08:58:14;98230.06;;;17.51;59.79
64876;BME280;51369;49.862;9.908;2023-04-29T09:00:43;98226.38;;;17.52;59.18
64876;BME280;51369;49.862;9.908;2023-04-29T09:03:21;98236.63;;;17.49;59.18
64876;BME280;51369;49.862;9.908;2023-04-29T09:05:52;98239.94;;;17.41;58.96
64876;BME280;51369;49.862;9.908;2023-04-29T09:08:17;98248.81;;;17.32;58.78
64876;BME280;51369;49.862;9.908;2023-04-29T09:10:45;98240.53;;;17.21;58.69
64876;BME280;51369;49.862;9.908;2023-04-29T09:13:30;98246.19;;;17.05;58.90
64876;BME280;51369;49.862;9.908;2023-04-29T09:15:57;98251.09;;;17.00;59.03
64876;BME280;51369;49.862;9.908;2023-04-29T09:21:17;98245.53;;;17.02;60.45
64876;BME280;51369;49.862;9.908;2023-04-29T09:23:44;98246.53;;;17.13;59.47
64876;BME280;51369;49.862;9.908;2023-04-29T09:26:10;98244.22;;;17.20;59.60
64876;BME280;51369;49.862;9.908;2023-04-29T09:28:36;98249.13;;;17.28;59.84
64876;BME280;51369;49.862;9.908;2023-04-29T09:31:02;98257.97;;;17.31;58.82
64876;BME280;51369;49.862;9.908;2023-04-29T09:33:48;98256.44;;;17.27;58.47
64876;BME280;51369;49.862;9.908;2023-04-29T09:36:17;98258.75;;;17.33;58.96
64876;BME280;51369;49.862;9.908;2023-04-29T09:38:59;98253.69;;;17.40;58.89
64876;BME280;51369;49.862;9.908;2023-04-29T09:41:24;98261.75;;;17.41;59.41
64876;BME280;51369;49.862;9.908;2023-04-29T09:44:04;98254.56;;;17.40;58.68
64876;BME280;51369;49.862;9.908;2023-04-29T09:46:34;98266.13;;;17.44;58.96
64876;BME280;51369;49.862;9.908;2023-04-29T09:49:01;98271.34;;;17.47;58.36
64876;BME280;51369;49.862;9.908;2023-04-29T09:51:27;98273.31;;;17.45;58.43
64876;BME280;51369;49.862;9.908;2023-04-29T09:53:52;98275.41;;;17.41;58.76
64876;BME280;51369;49.862;9.908;2023-04-29T09:56:18;98288.41;;;17.38;58.55
64876;BME280;51369;49.862;9.908;2023-04-29T09:58:43;98281.19;;;17.37;58.60
64876;BME280;51369;49.862;9.908;2023-04-29T10:01:10;98272.38;;;17.33;58.59
64876;BME280;51369;49.862;9.908;2023-04-29T10:03:37;98273.59;;;17.29;58.27
64876;BME280;51369;49.862;9.908;2023-04-29T10:06:05;98284.50;;;17.29;58.42
64876;BME280;51369;49.862;9.908;2023-04-29T10:08:33;98281.41;;;17.34;58.71
64876;BME280;51369;49.862;9.908;2023-04-29T10:11:01;98272.91;;;17.38;58.96
64876;BME280;51369;49.862;9.908;2023-04-29T10:13:27;98280.84;;;17.41;58.71
64876;BME280;51369;49.862;9.908;2023-04-29T10:18:40;98285.16;;;17.33;57.94
64876;BME280;51369;49.862;9.908;2023-04-29T10:21:06;98287.66;;;17.23;58.13
64876;BME280;51369;49.862;9.908;2023-04-29T10:23:33;98292.78;;;17.15;58.42
64876;BME280;51369;49.862;9.908;2023-04-29T10:26:01;98290.59;;;17.07;57.85
64876;BME280;51369;49.862;9.908;2023-04-29T10:28:30;98290.94;;;17.03;58.68
64876;BME280;51369;49.862;9.908;2023-04-29T10:30:59;98290.47;;;16.96;58.90
64876;BME280;51369;49.862;9.908;2023-04-29T10:33:30;98293.75;;;16.88;58.77
64876;BME280;51369;49.862;9.908;2023-04-29T10:35:57;98285.00;;;16.83;58.63
64876;BME280;51369;49.862;9.908;2023-04-29T10:38:32;98289.47;;;16.84;59.66
64876;BME280;51369;49.862;9.908;2023-04-29T10:41:03;98290.91;;;16.90;59.31
64876;BME280;51369;49.862;9.908;2023-04-29T10:43:32;98294.75;;;17.00;59.91
64876;BME280;51369;49.862;9.908;2023-04-29T10:48:49;98291.25;;;17.11;59.18
64876;BME280;51369;49.862;9.908;2023-04-29T10:54:09;98290.63;;;17.20;59.26
64876;BME280;51369;49.862;9.908;2023-04-29T10:56:43;98288.00;;;17.18;59.33
64876;BME280;51369;49.862;9.908;2023-04-29T10:59:14;98289.75;;;17.19;58.78
64876;BME280;51369;49.862;9.908;2023-04-29T11:01:48;98295.75;;;17.24;59.58
64876;BME280;51369;49.862;9.908;2023-04-29T11:04:15;98298.91;;;17.31;58.89
64876;BME280;51369;49.862;9.908;2023-04-29T11:06:42;98301.53;;;17.33;59.06
64876;BME280;51369;49.862;9.908;2023-04-29T11:14:07;98302.63;;;17.30;57.74
64876;BME280;51369;49.862;9.908;2023-04-29T11:16:34;98302.63;;;17.30;57.60
64876;BME280;51369;49.862;9.908;2023-04-29T11:19:08;98298.91;;;17.31;57.60
64876;BME280;51369;49.862;9.908;2023-04-29T11:21:36;98295.94;;;17.34;57.69
64876;BME280;51369;49.862;9.908;2023-04-29T11:24:03;98303.13;;;17.35;57.68
64876;BME280;51369;49.862;9.908;2023-04-29T11:26:34;98308.84;;;17.32;59.22
64876;BME280;51369;49.862;9.908;2023-04-29T11:29:00;98306.53;;;17.26;58.18
64876;BME280;51369;49.862;9.908;2023-04-29T11:31:29;98310.03;;;17.15;58.25
64876;BME280;51369;49.862;9.908;2023-04-29T11:33:54;98319.19;;;17.02;59.03
64876;BME280;51369;49.862;9.908;2023-04-29T11:36:20;98322.00;;;16.87;59.17
64876;BME280;51369;49.862;9.908;2023-04-29T11:38:45;98325.00;;;16.70;59.39
64876;BME280;51369;49.862;9.908;2023-04-29T11:41:10;98327.75;;;16.56;60.18
64876;BME280;51369;49.862;9.908;2023-04-29T11:43:37;98324.22;;;16.41;60.29
64876;BME280;51369;49.862;9.908;2023-04-29T11:46:13;98333.97;;;16.31;60.40
64876;BME280;51369;49.862;9.908;2023-04-29T11:48:46;98345.50;;;16.22;60.61
64876;BME280;51369;49.862;9.908;2023-04-29T11:51:12;98335.97;;;16.15;60.83
64876;BME280;51369;49.862;9.908;2023-04-29T11:53:38;98334.41;;;16.11;61.58
64876;BME280;51369;49.862;9.908;2023-04-29T11:56:04;98332.97;;;16.05;61.50
64876;BME280;51369;49.862;9.908;2023-04-29T11:58:30;98333.84;;;16.06;61.99
64876;BME280;51369;49.862;9.908;2023-04-29T12:00:57;98332.97;;;16.05;61.35
64876;BME280;51369;49.862;9.908;2023-04-29T12:03:22;98332.00;;;16.06;60.95
64876;BME280;51369;49.862;9.908;2023-04-29T12:05:54;98336.47;;;16.07;61.31
64876;BME280;51369;49.862;9.908;2023-04-29T12:08:27;98342.50;;;16.12;61.16
64876;BME280;51369;49.862;9.908;2023-04-29T12:10:55;98345.59;;;16.20;61.63
64876;BME280;51369;49.862;9.908;2023-04-29T12:13:22;98340.09;;;16.35;61.84
64876;BME280;51369;49.862;9.908;2023-04-29T12:15:49;98347.16;;;16.51;61.12
64876;BME280;51369;49.862;9.908;2023-04-29T12:18:16;98340.38;;;16.71;60.98
64876;BME280;51369;49.862;9.908;2023-04-29T12:20:43;98341.63;;;16.92;60.25
64876;BME280;51369;49.862;9.908;2023-04-29T12:23:20;98335.22;;;17.06;59.44
64876;BME280;51369;49.862;9.908;2023-04-29T12:25:54;98337.41;;;17.14;57.77
64876;BME280;51369;49.862;9.908;2023-04-29T12:28:20;98340.91;;;17.16;58.17
64876;BME280;51369;49.862;9.908;2023-04-29T12:30:46;98344.53;;;17.16;58.18
64876;BME280;51369;49.862;9.908;2023-04-29T12:33:18;98349.53;;;17.10;57.82
64876;BME280;51369;49.862;9.908;2023-04-29T12:35:44;98346.81;;;17.10;58.90
64876;BME280;51369;49.862;9.908;2023-04-29T12:38:09;98345.16;;;17.07;58.17
64876;BME280;51369;49.862;9.908;2023-04-29T12:40:35;98347.34;;;17.02;58.35
64876;BME280;51369;49.862;9.908;2023-04-29T12:43:07;98352.34;;;16.96;58.60
64876;BME280;51369;49.862;9.908;2023-04-29T12:45:33;98358.97;;;16.91;58.74
64876;BME280;51369;49.862;9.908;2023-04-29T12:48:00;98354.72;;;16.87;59.12
64876;BME280;51369;49.862;9.908;2023-04-29T12:50:30;98360.38;;;16.84;59.01
64876;BME280;51369;49.862;9.908;2023-04-29T12:52:57;98364.84;;;16.85;59.16
64876;BME280;51369;49.862;9.908;2023-04-29T12:55:23;98361.03;;;16.88;59.92
64876;BME280;51369;49.862;9.908;2023-04-29T12:57:48;98359.53;;;16.97;59.40
64876;BME280;51369;49.862;9.908;2023-04-29T13:00:14;98360.75;;;17.05;59.41
64876;BME280;51369;49.862;9.908;2023-04-29T13:02:39;98356.41;;;17.15;59.57
64876;BME280;51369;49.862;9.908;2023-04-29T13:05:05;98360.25;;;17.26;59.01
64876;BME280;51369;49.862;9.908;2023-04-29T13:07:32;98367.91;;;17.33;59.03
64876;BME280;51369;49.862;9.908;2023-04-29T13:09:57;98359.25;;;17.39;59.34
64876;BME280;51369;49.862;9.908;2023-04-29T13:12:22;98361.44;;;17.47;59.53
64876;BME280;51369;49.862;9.908;2023-04-29T13:14:48;98358.16;;;17.54;59.41
64876;BME280;51369;49.862;9.908;2023-04-29T13:17:13;98364.16;;;17.60;58.78
64876;BME280;51369;49.862;9.908;2023-04-29T13:19:39;98362.09;;;17.63;58.12
64876;BME280;51369;49.862;9.908;2023-04-29T13:22:04;98359.16;;;17.66;57.76
64876;BME280;51369;49.862;9.908;2023-04-29T13:24:29;98367.91;;;17.71;58.70
64876;BME280;51369;49.862;9.908;2023-04-29T13:26:55;98361.47;;;17.72;58.81
64876;BME280;51369;49.862;9.908;2023-04-29T13:29:20;98353.16;;;17.74;57.96
64876;BME280;51369;49.862;9.908;2023-04-29T13:31:46;98352.28;;;17.73;58.57
64876;BME280;51369;49.862;9.908;2023-04-29T13:34:11;98359.81;;;17.70;57.81